sensor_id;sensor_type;location;lat;lon;timestamp;pressure;altitude;pressure_sealevel;temperature;humidity
10720;BME280;5411;58.386;15.560;2024-01-27T00:02:07;77990.50;;;-144.36;100.00
10720;BME280;5411;58.386;15.560;2024-01-27T00:04:36;78002.75;;;-144.36;100.00
10720;BME280;5411;58.386;15.560;2024-01-27T00:07:04;78004.78;;;-144.36;100.00
10720;BME280;5411;58.386;15.560;2024-01-27T00:09:34;78006.84;;;-144.36;100.00
10720;BME280;5411;58.386;15.560;2024-01-27T00:12:02;78017.03;;;-144.36;100.00
10720;BME280;5411;58.386;15.560;2024-01-27T00:14:34;78023.16;;;-144.36;100.00
10720;BME280;5411;58.386;15.560;2024-01-27T00:17:03;78027.25;;;-144.36;100.00
10720;BME280;5411;58.386;15.560;2024-01-27T00:19:32;78039.50;;;-144.36;100.00
10720;BME280;5411;58.386;15.560;2024-01-27T00:22:07;78043.56;;;-144.36;100.00
10720;BME280;5411;58.386;15.560;2024-01-27T00:24:39;78059.91;;;-144.36;100.00
10720;BME280;5411;58.386;15.560;2024-01-27T00:27:07;78066.03;;;-144.36;100.00
10720;BME280;5411;58.386;15.560;2024-01-27T00:29:40;78074.19;;;-144.36;100.00
10720;BME280;5411;58.386;15.560;2024-01-27T00:32:10;78090.53;;;-144.36;100.00
10720;BME280;5411;58.386;15.560;2024-01-27T00:34:38;78115.00;;;-144.36;100.00
10720;BME280;5411;58.386;15.560;2024-01-27T00:37:07;78121.13;;;-144.36;100.00
10720;BME280;5411;58.386;15.560;2024-01-27T00:39:35;78137.47;;;-144.36;100.00
10720;BME280;5411;58.386;15.560;2024-01-27T00:42:04;78153.78;;;-144.36;100.00
10720;BME280;5411;58.386;15.560;2024-01-27T00:44:32;78155.84;;;-144.36;100.00
10720;BME280;5411;58.386;15.560;2024-01-27T00:47:01;78176.25;;;-144.36;100.00
10720;BME280;5411;58.386;15.560;2024-01-27T00:49:31;78186.44;;;-144.36;100.00
10720;BME280;5411;58.386;15.560;2024-01-27T00:52:00;78198.69;;;-144.36;100.00
10720;BME280;5411;58.386;15.560;2024-01-27T00:54:28;78212.97;;;-144.36;100.00
10720;BME280;5411;58.386;15.560;2024-01-27T00:56:57;78210.94;;;-144.36;100.00
10720;BME280;5411;58.386;15.560;2024-01-27T00:59:25;78225.22;;;-144.36;100.00
10720;BME280;5411;58.386;15.560;2024-01-27T01:01:54;78239.53;;;-144.36;100.00
10720;BME280;5411;58.386;15.560;2024-01-27T01:04:23;78241.56;;;-144.36;100.00
10720;BME280;5411;58.386;15.560;2024-01-27T01:06:56;78247.69;;;-144.36;100.00
10720;BME280;5411;58.386;15.560;2024-01-27T01:09:25;78268.09;;;-144.36;100.00
10720;BME280;5411;58.386;15.560;2024-01-27T01:11:53;78259.94;;;-144.36;100.00
10720;BME280;5411;58.386;15.560;2024-01-27T01:14:22;78264.00;;;-144.36;100.00
10720;BME280;5411;58.386;15.560;2024-01-27T01:16:53;78274.22;;;-144.36;100.00
10720;BME280;5411;58.386;15.560;2024-01-27T01:19:22;78292.59;;;-144.36;100.00
10720;BME280;5411;58.386;15.560;2024-01-27T01:21:50;78294.63;;;-144.36;100.00
10720;BME280;5411;58.386;15.560;2024-01-27T01:24:22;78302.81;;;-144.36;100.00
10720;BME280;5411;58.386;15.560;2024-01-27T01:26:50;78315.03;;;-144.36;100.00
10720;BME280;5411;58.386;15.560;2024-01-27T01:29:19;78317.09;;;-144.36;100.00
10720;BME280;5411;58.386;15.560;2024-01-27T01:31:48;78317.09;;;-144.36;100.00
10720;BME280;5411;58.386;15.560;2024-01-27T01:34:17;78331.38;;;-144.36;100.00
10720;BME280;5411;58.386;15.560;2024-01-27T01:36:46;78335.47;;;-144.36;100.00
10720;BME280;5411;58.386;15.560;2024-01-27T01:39:14;78343.63;;;-144.36;100.00
10720;BME280;5411;58.386;15.560;2024-01-27T01:41:45;78343.63;;;-144.36;100.00
10720;BME280;5411;58.386;15.560;2024-01-27T01:44:13;78353.84;;;-144.36;100.00
10720;BME280;5411;58.386;15.560;2024-01-27T01:46:42;78355.88;;;-144.36;100.00
10720;BME280;5411;58.386;15.560;2024-01-27T01:49:11;78368.13;;;-144.36;100.00
10720;BME280;5411;58.386;15.560;2024-01-27T01:51:41;78376.28;;;-144.36;100.00
10720;BME280;5411;58.386;15.560;2024-01-27T01:54:09;78382.41;;;-144.36;100.00
10720;BME280;5411;58.386;15.560;2024-01-27T01:56:39;78386.50;;;-144.36;100.00
10720;BME280;5411;58.386;15.560;2024-01-27T01:59:09;78390.56;;;-144.36;100.00
10720;BME280;5411;58.386;15.560;2024-01-27T02:01:38;78388.53;;;-144.36;100.00
10720;BME280;5411;58.386;15.560;2024-01-27T02:04:09;78396.69;;;-144.36;100.00
10720;BME280;5411;58.386;15.560;2024-01-27T02:06:38;78398.75;;;-144.36;100.00
10720;BME280;5411;58.386;15.560;2024-01-27T02:09:07;78406.91;;;-144.36;100.00
10720;BME280;5411;58.386;15.560;2024-01-27T02:11:37;78408.94;;;-144.36;100.00
10720;BME280;5411;58.386;15.560;2024-01-27T02:14:06;78417.09;;;-144.36;100.00
10720;BME280;5411;58.386;15.560;2024-01-27T02:16:38;78439.56;;;-144.36;100.00
10720;BME280;5411;58.386;15.560;2024-01-27T02:19:07;78435.47;;;-144.36;100.00
10720;BME280;5411;58.386;15.560;2024-01-27T02:21:38;78439.56;;;-144.36;100.00
10720;BME280;5411;58.386;15.560;2024-01-27T02:24:09;78441.59;;;-144.36;100.00
10720;BME280;5411;58.386;15.560;2024-01-27T02:26:38;78445.69;;;-144.36;100.00
10720;BME280;5411;58.386;15.560;2024-01-27T02:29:06;78451.81;;;-144.36;100.00
10720;BME280;5411;58.386;15.560;2024-01-27T02:31:35;78451.81;;;-144.36;100.00
10720;BME280;5411;58.386;15.560;2024-01-27T02:34:04;78449.78;;;-144.36;100.00
10720;BME280;5411;58.386;15.560;2024-01-27T02:36:32;78451.81;;;-144.36;100.00
10720;BME280;5411;58.386;15.560;2024-01-27T02:39:01;78449.78;;;-144.36;100.00
10720;BME280;5411;58.386;15.560;2024-01-27T02:41:32;78439.56;;;-144.36;100.00
10720;BME280;5411;58.386;15.560;2024-01-27T02:44:05;78433.44;;;-144.36;100.00
10720;BME280;5411;58.386;15.560;2024-01-27T02:46:35;78437.53;;;-144.36;100.00
10720;BME280;5411;58.386;15.560;2024-01-27T02:49:03;78439.56;;;-144.36;100.00
10720;BME280;5411;58.386;15.560;2024-01-27T02:51:32;78445.69;;;-144.36;100.00
10720;BME280;5411;58.386;15.560;2024-01-27T02:54:00;78462.00;;;-144.36;100.00
10720;BME280;5411;58.386;15.560;2024-01-27T02:56:30;78464.06;;;-144.36;100.00
10720;BME280;5411;58.386;15.560;2024-01-27T02:58:59;78468.13;;;-144.36;100.00
10720;BME280;5411;58.386;15.560;2024-01-27T03:01:27;78478.34;;;-144.36;100.00
10720;BME280;5411;58.386;15.560;2024-01-27T03:03:56;78496.72;;;-144.36;100.00
10720;BME280;5411;58.386;15.560;2024-01-27T03:06:24;78500.81;;;-144.36;100.00
10720;BME280;5411;58.386;15.560;2024-01-27T03:08:53;78506.94;;;-144.36;100.00
10720;BME280;5411;58.386;15.560;2024-01-27T03:11:21;78527.34;;;-144.36;100.00
10720;BME280;5411;58.386;15.560;2024-01-27T03:13:52;78527.34;;;-144.36;100.00
10720;BME280;5411;58.386;15.560;2024-01-27T03:16:20;78521.22;;;-144.36;100.00
10720;BME280;5411;58.386;15.560;2024-01-27T03:18:49;78527.34;;;-144.36;100.00
10720;BME280;5411;58.386;15.560;2024-01-27T03:21:19;78523.25;;;-144.36;100.00
10720;BME280;5411;58.386;15.560;2024-01-27T03:23:48;78535.50;;;-144.36;100.00
10720;BME280;5411;58.386;15.560;2024-01-27T03:26:16;78541.63;;;-144.36;100.00
10720;BME280;5411;58.386;15.560;2024-01-27T03:28:45;78541.63;;;-144.36;100.00
10720;BME280;5411;58.386;15.560;2024-01-27T03:31:13;78551.84;;;-144.36;100.00
10720;BME280;5411;58.386;15.560;2024-01-27T03:33:42;78553.88;;;-144.36;100.00
10720;BME280;5411;58.386;15.560;2024-01-27T03:36:11;78560.00;;;-144.36;100.00
10720;BME280;5411;58.386;15.560;2024-01-27T03:38:43;78568.16;;;-144.36;100.00
10720;BME280;5411;58.386;15.560;2024-01-27T03:41:11;78568.16;;;-144.36;99.75
10720;BME280;5411;58.386;15.560;2024-01-27T03:43:39;78564.09;;;-144.36;99.67
10720;BME280;5411;58.386;15.560;2024-01-27T03:46:08;78570.22;;;-144.36;99.63
10720;BME280;5411;58.386;15.560;2024-01-27T03:48:39;78568.16;;;-144.36;99.59
10720;BME280;5411;58.386;15.560;2024-01-27T03:51:10;78574.28;;;-144.36;99.55
10720;BME280;5411;58.386;15.560;2024-01-27T03:53:39;78576.34;;;-144.36;99.62
10720;BME280;5411;58.386;15.560;2024-01-27T03:56:11;78584.50;;;-144.36;98.96
10720;BME280;5411;58.386;15.560;2024-01-27T03:58:40;78592.66;;;-144.36;99.38
10720;BME280;5411;58.386;15.560;2024-01-27T04:01:08;78602.88;;;-144.36;99.06
10720;BME280;5411;58.386;15.560;2024-01-27T04:03:38;78606.94;;;-144.36;99.47
10720;BME280;5411;58.386;15.560;2024-01-27T04:06:07;78613.06;;;-144.36;99.73
10720;BME280;5411;58.386;15.560;2024-01-27T04:08:37;78619.19;;;-144.36;99.30
10720;BME280;5411;58.386;15.560;2024-01-27T04:11:07;78619.19;;;-144.36;99.13
10720;BME280;5411;58.386;15.560;2024-01-27T04:13:35;78623.28;;;-144.36;99.76
10720;BME280;5411;58.386;15.560;2024-01-27T04:16:04;78629.41;;;-144.36;99.46
10720;BME280;5411;58.386;15.560;2024-01-27T04:18:33;78645.75;;;-144.36;99.50
10720;BME280;5411;58.386;15.560;2024-01-27T04:21:03;78653.91;;;-144.36;99.65
10720;BME280;5411;58.386;15.560;2024-01-27T04:23:32;78660.03;;;-144.36;98.82
10720;BME280;5411;58.386;15.560;2024-01-27T04:26:04;78664.13;;;-144.36;98.50
10720;BME280;5411;58.386;15.560;2024-01-27T04:28:33;78666.16;;;-144.36;99.27
10720;BME280;5411;58.386;15.560;2024-01-27T04:31:02;78672.28;;;-144.36;99.06
10720;BME280;5411;58.386;15.560;2024-01-27T04:33:30;78678.41;;;-144.36;98.98
10720;BME280;5411;58.386;15.560;2024-01-27T04:36:00;78684.53;;;-144.36;98.48
10720;BME280;5411;58.386;15.560;2024-01-27T04:38:29;78684.53;;;-144.36;98.86
10720;BME280;5411;58.386;15.560;2024-01-27T04:40:58;78686.56;;;-144.36;98.62
10720;BME280;5411;58.386;15.560;2024-01-27T04:43:26;78680.44;;;-144.36;98.46
10720;BME280;5411;58.386;15.560;2024-01-27T04:45:55;78684.53;;;-144.36;98.54
10720;BME280;5411;58.386;15.560;2024-01-27T04:48:24;78684.53;;;-144.36;98.61
10720;BME280;5411;58.386;15.560;2024-01-27T04:50:53;78696.78;;;-144.36;98.00
10720;BME280;5411;58.386;15.560;2024-01-27T04:53:21;78698.81;;;-144.36;98.17
10720;BME280;5411;58.386;15.560;2024-01-27T04:55:52;78702.91;;;-144.36;98.34
10720;BME280;5411;58.386;15.560;2024-01-27T04:58:20;78711.06;;;-144.36;98.66
10720;BME280;5411;58.386;15.560;2024-01-27T05:00:49;78721.28;;;-144.36;98.46
10720;BME280;5411;58.386;15.560;2024-01-27T05:03:18;78719.22;;;-144.36;98.32
10720;BME280;5411;58.386;15.560;2024-01-27T05:05:46;78731.47;;;-144.36;98.69
10720;BME280;5411;58.386;15.560;2024-01-27T05:08:15;78743.72;;;-144.36;98.70
10720;BME280;5411;58.386;15.560;2024-01-27T05:10:44;78743.72;;;-144.36;99.04
10720;BME280;5411;58.386;15.560;2024-01-27T05:13:26;78751.91;;;-144.36;98.79
10720;BME280;5411;58.386;15.560;2024-01-27T05:15:54;78766.19;;;-144.36;99.39
10720;BME280;5411;58.386;15.560;2024-01-27T05:18:23;78768.22;;;-144.36;99.54
10720;BME280;5411;58.386;15.560;2024-01-27T05:20:58;78770.25;;;-144.36;99.79
10720;BME280;5411;58.386;15.560;2024-01-27T05:23:27;78782.50;;;-144.36;99.31
10720;BME280;5411;58.386;15.560;2024-01-27T05:25:55;78782.50;;;-144.36;99.38
10720;BME280;5411;58.386;15.560;2024-01-27T05:28:25;78784.56;;;-144.36;99.98
10720;BME280;5411;58.386;15.560;2024-01-27T05:30:53;78790.69;;;-144.36;99.69
10720;BME280;5411;58.386;15.560;2024-01-27T05:33:22;78798.84;;;-144.36;99.83
10720;BME280;5411;58.386;15.560;2024-01-27T05:35:51;78802.94;;;-144.36;99.53
10720;BME280;5411;58.386;15.560;2024-01-27T05:38:20;78802.94;;;-144.36;99.59
10720;BME280;5411;58.386;15.560;2024-01-27T05:40:49;78811.09;;;-144.36;99.11
10720;BME280;5411;58.386;15.560;2024-01-27T05:43:18;78815.19;;;-144.36;99.05
10720;BME280;5411;58.386;15.560;2024-01-27T05:45:48;78821.31;;;-144.36;99.55
10720;BME280;5411;58.386;15.560;2024-01-27T05:48:17;78823.34;;;-144.36;99.10
10720;BME280;5411;58.386;15.560;2024-01-27T05:50:54;78823.34;;;-144.36;100.00
10720;BME280;5411;58.386;15.560;2024-01-27T05:53:23;78835.59;;;-144.36;99.85
10720;BME280;5411;58.386;15.560;2024-01-27T05:55:52;78829.47;;;-144.36;99.30
10720;BME280;5411;58.386;15.560;2024-01-27T05:58:20;78837.63;;;-144.36;99.44
10720;BME280;5411;58.386;15.560;2024-01-27T06:00:50;78837.63;;;-144.36;99.83
10720;BME280;5411;58.386;15.560;2024-01-27T06:03:20;78835.59;;;-144.36;99.57
10720;BME280;5411;58.386;15.560;2024-01-27T06:05:49;78843.75;;;-144.36;99.35
10720;BME280;5411;58.386;15.560;2024-01-27T06:08:17;78860.09;;;-144.36;99.32
10720;BME280;5411;58.386;15.560;2024-01-27T06:10:47;78862.13;;;-144.36;100.00
10720;BME280;5411;58.386;15.560;2024-01-27T06:13:15;78872.34;;;-144.36;100.00
10720;BME280;5411;58.386;15.560;2024-01-27T06:15:43;78874.38;;;-144.36;99.77
10720;BME280;5411;58.386;15.560;2024-01-27T06:18:13;78892.75;;;-144.36;100.00
10720;BME280;5411;58.386;15.560;2024-01-27T06:20:42;78898.88;;;-144.36;100.00
10720;BME280;5411;58.386;15.560;2024-01-27T06:23:10;78909.09;;;-144.36;100.00
10720;BME280;5411;58.386;15.560;2024-01-27T06:25:39;78915.22;;;-144.36;100.00
10720;BME280;5411;58.386;15.560;2024-01-27T06:28:08;78919.28;;;-144.36;100.00
10720;BME280;5411;58.386;15.560;2024-01-27T06:30:37;78925.41;;;-144.36;100.00
10720;BME280;5411;58.386;15.560;2024-01-27T06:33:05;78937.66;;;-144.36;100.00
10720;BME280;5411;58.386;15.560;2024-01-27T06:35:35;78941.75;;;-144.36;100.00
10720;BME280;5411;58.386;15.560;2024-01-27T06:38:04;78943.78;;;-144.36;100.00
10720;BME280;5411;58.386;15.560;2024-01-27T06:40:32;78958.09;;;-144.36;100.00
10720;BME280;5411;58.386;15.560;2024-01-27T06:43:01;78962.16;;;-144.36;100.00
10720;BME280;5411;58.386;15.560;2024-01-27T06:45:32;78974.41;;;-144.36;100.00
10720;BME280;5411;58.386;15.560;2024-01-27T06:48:01;78980.53;;;-144.36;100.00
10720;BME280;5411;58.386;15.560;2024-01-27T06:50:33;78984.63;;;-144.36;100.00
10720;BME280;5411;58.386;15.560;2024-01-27T06:53:03;78992.78;;;-144.36;100.00
10720;BME280;5411;58.386;15.560;2024-01-27T06:55:31;78998.91;;;-144.36;100.00
10720;BME280;5411;58.386;15.560;2024-01-27T06:58:00;79003.00;;;-144.36;100.00
10720;BME280;5411;58.386;15.560;2024-01-27T07:00:28;79013.22;;;-144.36;100.00
10720;BME280;5411;58.386;15.560;2024-01-27T07:02:57;79017.28;;;-144.36;100.00
10720;BME280;5411;58.386;15.560;2024-01-27T07:05:26;79019.34;;;-144.36;100.00
10720;BME280;5411;58.386;15.560;2024-01-27T07:07:54;79025.47;;;-144.36;100.00
10720;BME280;5411;58.386;15.560;2024-01-27T07:10:24;79027.50;;;-144.36;100.00
10720;BME280;5411;58.386;15.560;2024-01-27T07:12:55;79039.75;;;-144.36;100.00
10720;BME280;5411;58.386;15.560;2024-01-27T07:15:24;79041.78;;;-144.36;100.00
10720;BME280;5411;58.386;15.560;2024-01-27T07:17:53;79049.97;;;-144.36;100.00
10720;BME280;5411;58.386;15.560;2024-01-27T07:20:22;79047.91;;;-144.36;100.00
10720;BME280;5411;58.386;15.560;2024-01-27T07:22:51;79056.09;;;-144.36;100.00
10720;BME280;5411;58.386;15.560;2024-01-27T07:25:19;79054.03;;;-144.36;100.00
10720;BME280;5411;58.386;15.560;2024-01-27T07:27:49;79056.09;;;-144.36;100.00
10720;BME280;5411;58.386;15.560;2024-01-27T07:30:18;79047.91;;;-144.36;100.00
10720;BME280;5411;58.386;15.560;2024-01-27T07:32:46;79045.88;;;-144.36;100.00
10720;BME280;5411;58.386;15.560;2024-01-27T07:35:15;79054.03;;;-144.36;100.00
10720;BME280;5411;58.386;15.560;2024-01-27T07:37:45;79049.97;;;-144.36;100.00
10720;BME280;5411;58.386;15.560;2024-01-27T07:40:13;79054.03;;;-144.36;100.00
10720;BME280;5411;58.386;15.560;2024-01-27T07:42:42;79058.13;;;-144.36;100.00
10720;BME280;5411;58.386;15.560;2024-01-27T07:45:12;79052.00;;;-144.36;100.00
10720;BME280;5411;58.386;15.560;2024-01-27T07:47:42;79058.13;;;-144.36;100.00
10720;BME280;5411;58.386;15.560;2024-01-27T07:50:10;79058.13;;;-144.36;100.00
10720;BME280;5411;58.386;15.560;2024-01-27T07:52:39;79052.00;;;-144.36;100.00
10720;BME280;5411;58.386;15.560;2024-01-27T07:55:09;79054.03;;;-144.36;100.00
10720;BME280;5411;58.386;15.560;2024-01-27T07:57:37;79056.09;;;-144.36;100.00
10720;BME280;5411;58.386;15.560;2024-01-27T08:00:07;79062.22;;;-144.36;100.00
10720;BME280;5411;58.386;15.560;2024-01-27T08:02:37;79062.22;;;-144.36;100.00
10720;BME280;5411;58.386;15.560;2024-01-27T08:05:06;79054.03;;;-144.36;100.00
10720;BME280;5411;58.386;15.560;2024-01-27T08:07:37;79056.09;;;-144.36;100.00
10720;BME280;5411;58.386;15.560;2024-01-27T08:10:06;79043.84;;;-144.36;100.00
10720;BME280;5411;58.386;15.560;2024-01-27T08:12:37;79035.66;;;-144.36;100.00
10720;BME280;5411;58.386;15.560;2024-01-27T08:15:09;79041.78;;;-144.36;100.00
10720;BME280;5411;58.386;15.560;2024-01-27T08:17:39;79035.66;;;-144.36;100.00
10720;BME280;5411;58.386;15.560;2024-01-27T08:20:11;79029.53;;;-144.36;100.00
10720;BME280;5411;58.386;15.560;2024-01-27T08:22:40;79029.53;;;-144.36;100.00
10720;BME280;5411;58.386;15.560;2024-01-27T08:25:08;79021.38;;;-144.36;100.00
10720;BME280;5411;58.386;15.560;2024-01-27T08:27:39;79023.41;;;-144.36;100.00
10720;BME280;5411;58.386;15.560;2024-01-27T08:30:10;79011.16;;;-144.36;100.00
10720;BME280;5411;58.386;15.560;2024-01-27T08:32:40;79013.22;;;-144.36;100.00
10720;BME280;5411;58.386;15.560;2024-01-27T08:35:09;79009.13;;;-144.36;100.00
10720;BME280;5411;58.386;15.560;2024-01-27T08:37:38;78996.88;;;-144.36;100.00
10720;BME280;5411;58.386;15.560;2024-01-27T08:40:07;79003.00;;;-144.36;100.00
10720;BME280;5411;58.386;15.560;2024-01-27T08:42:35;79005.03;;;-144.36;99.90
10720;BME280;5411;58.386;15.560;2024-01-27T08:45:04;79000.97;;;-144.36;99.88
10720;BME280;5411;58.386;15.560;2024-01-27T08:47:34;78996.88;;;-144.36;100.00
10720;BME280;5411;58.386;15.560;2024-01-27T08:50:10;78986.66;;;-144.36;99.50
10720;BME280;5411;58.386;15.560;2024-01-27T08:52:38;78982.59;;;-144.36;98.79
10720;BME280;5411;58.386;15.560;2024-01-27T08:55:07;78986.66;;;-144.36;98.96
10720;BME280;5411;58.386;15.560;2024-01-27T08:57:36;78978.50;;;-144.36;98.58
10720;BME280;5411;58.386;15.560;2024-01-27T09:00:05;78978.50;;;-144.36;98.89
10720;BME280;5411;58.386;15.560;2024-01-27T09:02:34;78970.34;;;-144.36;98.67
10720;BME280;5411;58.386;15.560;2024-01-27T09:05:03;78960.13;;;-144.36;97.67
10720;BME280;5411;58.386;15.560;2024-01-27T09:07:34;78956.03;;;-144.36;97.78
10720;BME280;5411;58.386;15.560;2024-01-27T09:10:05;78956.03;;;-144.36;97.57
10720;BME280;5411;58.386;15.560;2024-01-27T09:12:34;78939.72;;;-144.36;97.50
10720;BME280;5411;58.386;15.560;2024-01-27T09:15:04;78941.75;;;-144.36;96.79
10720;BME280;5411;58.386;15.560;2024-01-27T09:17:34;78937.66;;;-144.36;96.92
10720;BME280;5411;58.386;15.560;2024-01-27T09:20:03;78927.47;;;-144.36;96.46
10720;BME280;5411;58.386;15.560;2024-01-27T09:22:34;78915.22;;;-144.36;96.19
10720;BME280;5411;58.386;15.560;2024-01-27T09:25:03;78909.09;;;-144.36;95.96
10720;BME280;5411;58.386;15.560;2024-01-27T09:27:32;78900.91;;;-144.36;95.30
10720;BME280;5411;58.386;15.560;2024-01-27T09:30:01;78907.03;;;-144.36;95.73
10720;BME280;5411;58.386;15.560;2024-01-27T09:32:30;78902.97;;;-144.36;95.14
10720;BME280;5411;58.386;15.560;2024-01-27T09:34:58;78896.84;;;-144.36;95.10
10720;BME280;5411;58.386;15.560;2024-01-27T09:37:27;78884.59;;;-144.36;95.15
10720;BME280;5411;58.386;15.560;2024-01-27T09:39:57;78872.34;;;-144.36;94.58
10720;BME280;5411;58.386;15.560;2024-01-27T09:42:28;78862.13;;;-144.36;94.37
10720;BME280;5411;58.386;15.560;2024-01-27T09:44:57;78856.00;;;-144.36;94.18
10720;BME280;5411;58.386;15.560;2024-01-27T09:47:28;78858.06;;;-144.36;93.26
10720;BME280;5411;58.386;15.560;2024-01-27T09:49:57;78866.22;;;-144.36;93.11
10720;BME280;5411;58.386;15.560;2024-01-27T09:52:25;78862.13;;;-144.36;93.48
10720;BME280;5411;58.386;15.560;2024-01-27T09:54:54;78856.00;;;-144.36;93.08
10720;BME280;5411;58.386;15.560;2024-01-27T09:57:24;78851.94;;;-144.36;92.90
10720;BME280;5411;58.386;15.560;2024-01-27T09:59:56;78841.72;;;-144.36;92.81
10720;BME280;5411;58.386;15.560;2024-01-27T10:02:25;78827.44;;;-144.36;92.66
10720;BME280;5411;58.386;15.560;2024-01-27T10:04:57;78809.06;;;-144.36;91.90
10720;BME280;5411;58.386;15.560;2024-01-27T10:07:27;78796.81;;;-144.36;91.45
10720;BME280;5411;58.386;15.560;2024-01-27T10:09:56;78790.69;;;-144.36;90.88
10720;BME280;5411;58.386;15.560;2024-01-27T10:12:26;78784.56;;;-144.36;90.61
10720;BME280;5411;58.386;15.560;2024-01-27T10:14:56;78780.47;;;-144.36;90.71
10720;BME280;5411;58.386;15.560;2024-01-27T10:17:25;78774.34;;;-144.36;90.41
10720;BME280;5411;58.386;15.560;2024-01-27T10:20:00;78762.09;;;-144.36;90.34
10720;BME280;5411;58.386;15.560;2024-01-27T10:22:37;78762.09;;;-144.36;90.29
10720;BME280;5411;58.386;15.560;2024-01-27T10:25:07;78758.03;;;-144.36;89.62
10720;BME280;5411;58.386;15.560;2024-01-27T10:27:38;78764.16;;;-144.36;90.00
10720;BME280;5411;58.386;15.560;2024-01-27T10:30:15;78760.06;;;-144.36;89.79
10720;BME280;5411;58.386;15.560;2024-01-27T10:32:54;78755.97;;;-144.36;89.40
10720;BME280;5411;58.386;15.560;2024-01-27T10:35:25;78743.72;;;-144.36;88.67
10720;BME280;5411;58.386;15.560;2024-01-27T10:37:53;78735.56;;;-144.36;88.87
10720;BME280;5411;58.386;15.560;2024-01-27T10:40:25;78727.41;;;-144.36;88.67
10720;BME280;5411;58.386;15.560;2024-01-27T10:43:01;78715.16;;;-144.36;89.11
10720;BME280;5411;58.386;15.560;2024-01-27T10:45:35;78711.06;;;-144.36;88.94
10720;BME280;5411;58.386;15.560;2024-01-27T10:48:06;78706.97;;;-144.36;88.86
10720;BME280;5411;58.386;15.560;2024-01-27T10:50:38;78702.91;;;-144.36;88.89
10720;BME280;5411;58.386;15.560;2024-01-27T10:53:20;78702.91;;;-144.36;88.59
10720;BME280;5411;58.386;15.560;2024-01-27T10:55:53;78706.97;;;-144.36;88.02
10720;BME280;5411;58.386;15.560;2024-01-27T10:58:29;78704.94;;;-144.36;87.75
10720;BME280;5411;58.386;15.560;2024-01-27T11:01:09;78698.81;;;-144.36;87.66
10720;BME280;5411;58.386;15.560;2024-01-27T11:03:39;78696.78;;;-144.36;88.50
10720;BME280;5411;58.386;15.560;2024-01-27T11:06:09;78692.69;;;-144.36;87.96
10720;BME280;5411;58.386;15.560;2024-01-27T11:08:40;78686.56;;;-144.36;88.61
10720;BME280;5411;58.386;15.560;2024-01-27T11:11:10;78686.56;;;-144.36;88.90
10720;BME280;5411;58.386;15.560;2024-01-27T11:13:43;78676.38;;;-144.36;88.44
10720;BME280;5411;58.386;15.560;2024-01-27T11:16:16;78662.06;;;-144.36;88.79
10720;BME280;5411;58.386;15.560;2024-01-27T11:18:46;78649.81;;;-144.36;88.54
10720;BME280;5411;58.386;15.560;2024-01-27T11:21:17;78653.91;;;-144.36;88.42
10720;BME280;5411;58.386;15.560;2024-01-27T11:23:45;78641.66;;;-144.36;87.71
10720;BME280;5411;58.386;15.560;2024-01-27T11:26:19;78643.69;;;-144.36;88.01
10720;BME280;5411;58.386;15.560;2024-01-27T11:28:49;78637.56;;;-144.36;87.79
10720;BME280;5411;58.386;15.560;2024-01-27T11:31:19;78631.44;;;-144.36;88.34
10720;BME280;5411;58.386;15.560;2024-01-27T11:33:50;78627.38;;;-144.36;88.33
10720;BME280;5411;58.386;15.560;2024-01-27T11:36:22;78617.16;;;-144.36;87.78
10720;BME280;5411;58.386;15.560;2024-01-27T11:38:52;78619.19;;;-144.36;88.13
10720;BME280;5411;58.386;15.560;2024-01-27T11:41:27;78621.25;;;-144.36;87.72
10720;BME280;5411;58.386;15.560;2024-01-27T11:43:58;78613.06;;;-144.36;87.94
10720;BME280;5411;58.386;15.560;2024-01-27T11:46:29;78613.06;;;-144.36;88.08
10720;BME280;5411;58.386;15.560;2024-01-27T11:48:57;78604.91;;;-144.36;88.24
10720;BME280;5411;58.386;15.560;2024-01-27T11:51:25;78600.84;;;-144.36;87.49
10720;BME280;5411;58.386;15.560;2024-01-27T11:53:55;78598.78;;;-144.36;87.93
10720;BME280;5411;58.386;15.560;2024-01-27T11:56:23;78594.72;;;-144.36;87.85
10720;BME280;5411;58.386;15.560;2024-01-27T11:58:52;78592.66;;;-144.36;87.62
10720;BME280;5411;58.386;15.560;2024-01-27T12:01:22;78584.50;;;-144.36;88.10
10720;BME280;5411;58.386;15.560;2024-01-27T12:03:51;78574.28;;;-144.36;87.34
10720;BME280;5411;58.386;15.560;2024-01-27T12:06:20;78576.34;;;-144.36;88.02
10720;BME280;5411;58.386;15.560;2024-01-27T12:08:48;78582.47;;;-144.36;88.02
10720;BME280;5411;58.386;15.560;2024-01-27T12:11:17;78580.41;;;-144.36;88.34
10720;BME280;5411;58.386;15.560;2024-01-27T12:13:51;78576.34;;;-144.36;87.75
10720;BME280;5411;58.386;15.560;2024-01-27T12:16:22;78572.25;;;-144.36;88.38
10720;BME280;5411;58.386;15.560;2024-01-27T12:18:54;78572.25;;;-144.36;87.96
10720;BME280;5411;58.386;15.560;2024-01-27T12:21:23;78572.25;;;-144.36;87.81
10720;BME280;5411;58.386;15.560;2024-01-27T12:23:52;78574.28;;;-144.36;87.92
10720;BME280;5411;58.386;15.560;2024-01-27T12:26:22;78572.25;;;-144.36;87.77
10720;BME280;5411;58.386;15.560;2024-01-27T12:28:51;78568.16;;;-144.36;88.48
10720;BME280;5411;58.386;15.560;2024-01-27T12:31:19;78562.03;;;-144.36;87.91
10720;BME280;5411;58.386;15.560;2024-01-27T12:33:55;78564.09;;;-144.36;87.98
10720;BME280;5411;58.386;15.560;2024-01-27T12:36:27;78557.97;;;-144.36;88.35
10720;BME280;5411;58.386;15.560;2024-01-27T12:38:57;78562.03;;;-144.36;88.08
10720;BME280;5411;58.386;15.560;2024-01-27T12:41:26;78564.09;;;-144.36;87.89
10720;BME280;5411;58.386;15.560;2024-01-27T12:43:55;78568.16;;;-144.36;88.14
10720;BME280;5411;58.386;15.560;2024-01-27T12:46:25;78568.16;;;-144.36;88.29
10720;BME280;5411;58.386;15.560;2024-01-27T12:48:55;78568.16;;;-144.36;88.38